Terminal Aerodrome Forecast
Issued by NWS Wilmington, OH

Current Version | Previous Version | Graphics & Text | Print | Product List | Glossary On
Versions: 1 2 3 4 5 6 7 8 9 10 11 12 13 14 15 16 17 18 19 20 21 22 23 24
000
FTUS41 KILN 230100 AAA
TAFCVG
TAF AMD
KCVG 230159Z 2302/2406 33013G20KT P6SM FEW250
     FM230400 33012KT P6SM FEW250
     FM230600 35007KT P6SM SKC
     FM231600 36009KT P6SM FEW040
     FM232300 02005KT P6SM SCT250
     FM240300 06005KT P6SM BKN120=

USA.gov is the U.S. government's official web portal to all federal, state and local government web resources and services.